Time;durP1;ratioP1;P1;durP2;ratioP2;P2;SDS_P1;SDS_P2;PMS_P1;PMS_P2;Temp;Humidity;BMP_temperature;BMP_pressure;BME280_temperature;BME280_humidity;BME280_pressure;Samples;Min_cycle;Max_cycle;Signal;HPM_P1;HPM_P2
2024/02/10 16:14:11;;;;;;;2.03;1.60;;;;;;;;;;5121320;27;20721;-73
2024/02/10 16:16:36;;;;;;;1.60;1.25;;;;;;;;;;5110540;28;20035;-74
2024/02/10 16:19:01;;;;;;;4.80;1.23;;;;;;;;;;5110461;28;20098;-74
2024/02/10 16:21:28;;;;;;;2.37;1.17;;;;;;;;;;5110328;28;20051;-74
2024/02/10 16:23:54;;;;;;;1.85;1.40;;;;;;;;;;5089592;28;20251;-75
2024/02/10 16:26:20;;;;;;;1.92;1.10;;;;;;;;;;5110245;28;20016;-75
2024/02/10 16:28:46;;;;;;;3.40;1.25;;;;;;;;;;5110325;28;20016;-74
2024/02/10 16:31:17;;;;;;;1.67;0.93;;;;;;;;;;5110242;28;20100;-75
2024/02/10 16:33:43;;;;;;;1.05;0.90;;;;;;;;;;5110156;28;20020;-74
2024/02/10 16:36:08;;;;;;;1.65;1.10;;;;;;;;;;5110003;28;20368;-76
2024/02/10 16:38:34;;;;;;;3.83;1.20;;;;;;;;;;5110685;28;20150;-80
2024/02/10 16:40:59;;;;;;;4.15;1.52;;;;;;;;;;5110828;28;20016;-80
2024/02/10 16:43:24;;;;;;;1.85;1.08;;;;;;;;;;5108228;28;20024;-80
2024/02/10 16:45:49;;;;;;;3.43;1.57;;;;;;;;;;5107692;28;20024;-79
2024/02/10 16:48:15;;;;;;;4.30;1.50;;;;;;;;;;5105680;28;20351;-80
2024/02/10 16:50:40;;;;;;;2.47;1.77;;;;;;;;;;5108039;28;20351;-80
2024/02/10 16:53:05;;;;;;;5.22;2.90;;;;;;;;;;5092110;28;20312;-80
2024/02/10 16:55:40;;;;;;;5.03;2.60;;;;;;;;;;5110266;28;20016;-79
2024/02/10 16:58:08;;;;;;;2.83;1.77;;;;;;;;;;5110386;28;20460;-80
2024/02/10 17:00:42;;;;;;;3.10;1.50;;;;;;;;;;5110279;28;20437;-79
2024/02/10 17:03:09;;;;;;;2.75;1.80;;;;;;;;;;5110301;28;20015;-80
2024/02/10 17:05:39;;;;;;;8.45;3.97;;;;;;;;;;5109760;28;20047;-80
2024/02/10 17:08:05;;;;;;;6.88;4.15;;;;;;;;;;5105277;28;20077;-80
2024/02/10 17:10:36;;;;;;;5.38;3.15;;;;;;;;;;5108744;28;20426;-80
2024/02/10 17:13:06;;;;;;;2.63;1.80;;;;;;;;;;5099812;28;20058;-80
2024/02/10 17:15:32;;;;;;;3.85;1.67;;;;;;;;;;5097289;28;20073;-80
2024/02/10 17:17:57;;;;;;;1.85;1.33;;;;;;;;;;5095709;28;20020;-80
2024/02/10 17:20:24;;;;;;;1.40;1.30;;;;;;;;;;5096720;28;20019;-79
2024/02/10 17:22:51;;;;;;;6.82;1.60;;;;;;;;;;5094719;28;20023;-80
2024/02/10 17:25:18;;;;;;;4.47;1.75;;;;;;;;;;5084296;28;20057;-80
2024/02/10 17:27:45;;;;;;;2.55;1.60;;;;;;;;;;5083420;28;20031;-80
2024/02/10 17:30:10;;;;;;;4.22;2.30;;;;;;;;;;5086066;28;20468;-80
2024/02/10 17:32:35;;;;;;;6.22;1.60;;;;;;;;;;5083442;28;20020;-79
2024/02/10 17:35:01;;;;;;;2.70;1.60;;;;;;;;;;5082204;28;20024;-80
2024/02/10 17:37:28;;;;;;;3.33;1.92;;;;;;;;;;5084017;28;20012;-80
2024/02/10 17:39:54;;;;;;;3.42;2.10;;;;;;;;;;5081767;28;20100;-80
2024/02/10 17:42:19;;;;;;;3.85;2.10;;;;;;;;;;5068251;28;20040;-80
2024/02/10 17:44:47;;;;;;;2.37;1.53;;;;;;;;;;5083179;28;20020;-80
2024/02/10 17:47:17;;;;;;;2.53;1.45;;;;;;;;;;5081913;28;20288;-63
2024/02/10 17:49:44;;;;;;;2.58;1.67;;;;;;;;;;5089204;28;20024;-63
2024/02/10 17:52:12;;;;;;;2.85;1.55;;;;;;;;;;5082043;28;20455;-64
2024/02/10 17:54:38;;;;;;;3.22;1.40;;;;;;;;;;5083757;28;20063;-63
2024/02/10 17:57:07;;;;;;;2.05;1.35;;;;;;;;;;5085242;28;20020;-63
2024/02/10 17:59:32;;;;;;;3.35;1.55;;;;;;;;;;5085161;28;20020;-64
2024/02/10 18:01:57;;;;;;;2.10;1.30;;;;;;;;;;5084330;28;20353;-62
2024/02/10 18:04:23;;;;;;;3.60;1.27;;;;;;;;;;5085106;28;20786;-63
2024/02/10 18:06:48;;;;;;;2.08;1.35;;;;;;;;;;5082553;28;20586;-63
2024/02/10 18:09:14;;;;;;;2.13;1.40;;;;;;;;;;5082464;28;20027;-64
2024/02/10 18:11:39;;;;;;;2.93;1.80;;;;;;;;;;5085092;28;20016;-64
2024/02/10 18:14:04;;;;;;;12.27;4.67;;;;;;;;;;5084808;28;20470;-64
2024/02/10 18:16:29;;;;;;;14.83;5.47;;;;;;;;;;5083886;28;20578;-64
2024/02/10 18:18:55;;;;;;;16.58;8.23;;;;;;;;;;5084682;28;20747;-64
2024/02/10 18:21:21;;;;;;;11.03;6.73;;;;;;;;;;5085498;28;20019;-64
2024/02/10 18:23:47;;;;;;;10.85;6.70;;;;;;;;;;5078345;28;20732;-64
2024/02/10 18:26:13;;;;;;;14.48;7.13;;;;;;;;;;5075849;28;20026;-64
2024/02/10 18:28:38;;;;;;;10.18;4.97;;;;;;;;;;5093895;28;20020;-64
2024/02/10 18:31:04;;;;;;;9.43;5.00;;;;;;;;;;5080334;28;20028;-64
2024/02/10 18:33:29;;;;;;;7.22;3.75;;;;;;;;;;5091925;28;20277;-64
2024/02/10 18:35:55;;;;;;;10.37;5.17;;;;;;;;;;5089005;28;20024;-64
2024/02/10 18:38:24;;;;;;;12.20;6.65;;;;;;;;;;5073812;28;20013;-64
2024/02/10 18:40:49;;;;;;;19.60;9.88;;;;;;;;;;5074270;28;20384;-64
2024/02/10 18:43:16;;;;;;;14.57;7.43;;;;;;;;;;5074585;28;20029;-64
2024/02/10 18:45:43;;;;;;;16.33;7.97;;;;;;;;;;5074203;28;20468;-64
2024/02/10 18:48:14;;;;;;;13.07;6.85;;;;;;;;;;5083979;28;20070;-64
2024/02/10 18:50:39;;;;;;;10.95;6.22;;;;;;;;;;5094291;28;20085;-64
2024/02/10 18:53:09;;;;;;;15.10;6.80;;;;;;;;;;5090402;28;20021;-64
2024/02/10 18:55:35;;;;;;;6.63;3.60;;;;;;;;;;5059934;28;20021;-64
2024/02/10 18:58:00;;;;;;;5.00;2.45;;;;;;;;;;5074562;28;20062;-65
2024/02/10 19:00:25;;;;;;;6.32;2.50;;;;;;;;;;5081375;28;20100;-65
2024/02/10 19:02:51;;;;;;;4.38;2.80;;;;;;;;;;5079616;28;20137;-65
2024/02/10 19:05:17;;;;;;;5.10;2.92;;;;;;;;;;5073754;28;20028;-65
2024/02/10 19:07:43;;;;;;;6.85;3.17;;;;;;;;;;5073023;28;20431;-65
2024/02/10 19:10:09;;;;;;;4.97;3.03;;;;;;;;;;5073461;28;20400;-65
2024/02/10 19:12:35;;;;;;;10.73;4.60;;;;;;;;;;5073240;28;20510;-65
2024/02/10 19:15:04;;;;;;;10.98;3.67;;;;;;;;;;5073076;28;20016;-65
2024/02/10 19:17:32;;;;;;;11.15;5.50;;;;;;;;;;5073600;28;20511;-65
2024/02/10 19:19:57;;;;;;;7.63;3.65;;;;;;;;;;5055155;28;20024;-65
2024/02/10 19:22:23;;;;;;;15.37;8.80;;;;;;;;;;5072731;28;20078;-65
2024/02/10 19:24:50;;;;;;;15.48;8.40;;;;;;;;;;5072691;28;20287;-65
2024/02/10 19:27:15;;;;;;;9.77;5.15;;;;;;;;;;5084656;28;20393;-65
2024/02/10 19:29:41;;;;;;;14.37;6.53;;;;;;;;;;5073718;28;20405;-65
2024/02/10 19:32:07;;;;;;;10.13;5.60;;;;;;;;;;5072862;28;20281;-65
2024/02/10 19:34:32;;;;;;;8.55;4.45;;;;;;;;;;5076766;28;20108;-65
2024/02/10 19:36:59;;;;;;;7.40;4.07;;;;;;;;;;5086670;28;20027;-65
2024/02/10 19:39:24;;;;;;;9.68;4.53;;;;;;;;;;5091665;28;20016;-65
2024/02/10 19:41:50;;;;;;;8.80;5.45;;;;;;;;;;5072758;28;20025;-65
2024/02/10 19:44:17;;;;;;;9.47;5.33;;;;;;;;;;5073014;28;20048;-65
2024/02/10 19:46:47;;;;;;;7.70;4.50;;;;;;;;;;5072872;28;20813;-65
2024/02/10 19:49:12;;;;;;;9.88;5.13;;;;;;;;;;5080925;28;20107;-65
2024/02/10 19:51:39;;;;;;;10.15;5.07;;;;;;;;;;5092593;28;20037;-65
2024/02/10 19:54:05;;;;;;;6.38;4.07;;;;;;;;;;5081403;28;20668;-65
2024/02/10 19:56:30;;;;;;;5.97;3.97;;;;;;;;;;5090777;28;20115;-65
2024/02/10 19:58:55;;;;;;;8.20;4.90;;;;;;;;;;5092869;28;20073;-65
2024/02/10 20:01:20;;;;;;;7.97;4.43;;;;;;;;;;5093042;28;20016;-65
2024/02/10 20:03:46;;;;;;;11.03;4.73;;;;;;;;;;5092539;28;20024;-65
2024/02/10 20:06:11;;;;;;;12.32;6.35;;;;;;;;;;5078228;28;20261;-65
2024/02/10 20:08:36;;;;;;;10.43;5.90;;;;;;;;;;5072529;28;20031;-65
2024/02/10 20:11:05;;;;;;;11.65;5.88;;;;;;;;;;5084779;28;20257;-65
2024/02/10 20:13:30;;;;;;;10.85;5.25;;;;;;;;;;5071921;28;20065;-65
2024/02/10 20:15:58;;;;;;;8.82;4.88;;;;;;;;;;5072259;28;20611;-65
2024/02/10 20:18:23;;;;;;;11.23;5.90;;;;;;;;;;5053974;28;20503;-65
2024/02/10 20:20:48;;;;;;;10.43;5.17;;;;;;;;;;5089788;28;20020;-65
2024/02/10 20:23:14;;;;;;;11.00;4.97;;;;;;;;;;5091868;28;20260;-65
2024/02/10 20:25:39;;;;;;;10.35;5.50;;;;;;;;;;5092224;28;20024;-65
2024/02/10 20:28:06;;;;;;;8.32;4.82;;;;;;;;;;5085066;28;20035;-65
2024/02/10 20:30:32;;;;;;;10.02;4.38;;;;;;;;;;5072236;28;20074;-65
2024/02/10 20:32:57;;;;;;;7.85;4.40;;;;;;;;;;5072452;28;20024;-65
2024/02/10 20:35:23;;;;;;;8.68;4.75;;;;;;;;;;5072451;28;20376;-65
2024/02/10 20:37:49;;;;;;;8.63;4.68;;;;;;;;;;5053724;28;20032;-65
2024/02/10 20:40:14;;;;;;;11.95;4.47;;;;;;;;;;5088936;28;20369;-65
2024/02/10 20:42:39;;;;;;;12.35;4.72;;;;;;;;;;5092701;28;20024;-65
2024/02/10 20:45:05;;;;;;;12.00;4.25;;;;;;;;;;5092475;28;20024;-65
2024/02/10 20:47:33;;;;;;;8.07;4.90;;;;;;;;;;5092174;28;20051;-65
2024/02/10 20:50:00;;;;;;;9.80;4.43;;;;;;;;;;5092799;28;20449;-65
2024/02/10 20:52:25;;;;;;;9.57;5.03;;;;;;;;;;5091777;28;20034;-65
2024/02/10 20:54:51;;;;;;;7.13;4.37;;;;;;;;;;5092458;28;20095;-65
2024/02/10 20:57:16;;;;;;;8.50;4.70;;;;;;;;;;5090555;28;20638;-65
2024/02/10 20:59:41;;;;;;;10.15;6.22;;;;;;;;;;5074238;28;20495;-65
2024/02/10 21:02:07;;;;;;;7.27;4.97;;;;;;;;;;5075655;28;20036;-65
2024/02/10 21:04:33;;;;;;;10.45;5.28;;;;;;;;;;5076040;28;20264;-64
2024/02/10 21:07:01;;;;;;;7.65;4.35;;;;;;;;;;5075465;28;20472;-65
2024/02/10 21:09:26;;;;;;;11.98;6.68;;;;;;;;;;5075856;28;20480;-65
2024/02/10 21:11:51;;;;;;;15.98;8.77;;;;;;;;;;5075559;28;20035;-65
2024/02/10 21:14:17;;;;;;;16.47;7.50;;;;;;;;;;5075162;28;20033;-65
2024/02/10 21:16:44;;;;;;;11.82;6.07;;;;;;;;;;5075731;28;20257;-65
2024/02/10 21:19:10;;;;;;;15.35;6.50;;;;;;;;;;5075844;28;20081;-63
2024/02/10 21:21:38;;;;;;;12.13;6.57;;;;;;;;;;5075112;28;20112;-63
2024/02/10 21:24:04;;;;;;;13.73;5.88;;;;;;;;;;5075895;28;20020;-63
2024/02/10 21:26:33;;;;;;;10.35;6.10;;;;;;;;;;5075520;28;20031;-63
2024/02/10 21:29:03;;;;;;;8.32;5.72;;;;;;;;;;5075341;28;20063;-63
2024/02/10 21:31:29;;;;;;;11.85;5.95;;;;;;;;;;5075480;28;20066;-63
2024/02/10 21:33:54;;;;;;;11.90;7.03;;;;;;;;;;5075574;28;20483;-63
2024/02/10 21:36:22;;;;;;;10.05;5.78;;;;;;;;;;5074837;28;20017;-63
2024/02/10 21:38:47;;;;;;;12.30;6.70;;;;;;;;;;5075533;28;20020;-63
2024/02/10 21:41:12;;;;;;;11.57;6.23;;;;;;;;;;5074067;28;20537;-63
2024/02/10 21:43:39;;;;;;;12.10;7.07;;;;;;;;;;5078763;28;20031;-63
2024/02/10 21:46:05;;;;;;;17.73;7.40;;;;;;;;;;5074525;28;20645;-63
2024/02/10 21:48:30;;;;;;;16.50;6.97;;;;;;;;;;5074530;28;20111;-63
2024/02/10 21:50:56;;;;;;;24.70;10.93;;;;;;;;;;5074189;28;20040;-63
2024/02/10 21:53:21;;;;;;;32.05;14.95;;;;;;;;;;5074433;28;20024;-63
2024/02/10 21:55:46;;;;;;;36.75;18.05;;;;;;;;;;5074808;28;20032;-63
2024/02/10 21:58:13;;;;;;;30.53;16.00;;;;;;;;;;5074593;28;20470;-63
2024/02/10 22:00:39;;;;;;;32.80;17.08;;;;;;;;;;5074682;28;20095;-63
2024/02/10 22:03:06;;;;;;;28.95;15.18;;;;;;;;;;5074341;28;20032;-63
2024/02/10 22:05:31;;;;;;;32.75;16.17;;;;;;;;;;5081445;28;20109;-63
2024/02/10 22:07:56;;;;;;;32.35;16.38;;;;;;;;;;5094553;28;20479;-63
2024/02/10 22:10:21;;;;;;;31.03;14.80;;;;;;;;;;5093252;28;20038;-63
2024/02/10 22:12:47;;;;;;;27.63;13.23;;;;;;;;;;5094323;28;20279;-63
2024/02/10 22:15:13;;;;;;;31.60;14.50;;;;;;;;;;5094851;28;20030;-63
2024/02/10 22:17:38;;;;;;;32.90;15.35;;;;;;;;;;5094897;28;20378;-63
2024/02/10 22:20:05;;;;;;;33.22;14.50;;;;;;;;;;5094274;28;20047;-63
2024/02/10 22:22:30;;;;;;;37.58;14.02;;;;;;;;;;5085255;28;20484;-63
2024/02/10 22:24:56;;;;;;;30.10;13.80;;;;;;;;;;5074323;28;20055;-63
2024/02/10 22:27:21;;;;;;;28.90;13.23;;;;;;;;;;5074530;28;20257;-63
2024/02/10 22:29:46;;;;;;;32.63;14.60;;;;;;;;;;5074232;28;20310;-63
2024/02/10 22:32:12;;;;;;;32.40;14.10;;;;;;;;;;5074012;28;20364;-63
2024/02/10 22:34:38;;;;;;;29.83;14.82;;;;;;;;;;5074176;28;20024;-63
2024/02/10 22:37:11;;;;;;;31.48;14.60;;;;;;;;;;5074017;28;20046;-63
2024/02/10 22:39:38;;;;;;;25.17;12.80;;;;;;;;;;5074256;28;20099;-63
2024/02/10 22:42:04;;;;;;;33.28;15.35;;;;;;;;;;5073637;28;20325;-63
2024/02/10 22:44:29;;;;;;;28.52;14.68;;;;;;;;;;5074337;28;20028;-63
2024/02/10 22:46:55;;;;;;;36.10;13.33;;;;;;;;;;5073644;28;20350;-63
2024/02/10 22:49:22;;;;;;;56.35;17.55;;;;;;;;;;5074185;28;20333;-63
2024/02/10 22:51:49;;;;;;;27.42;14.45;;;;;;;;;;5073625;28;20353;-63
2024/02/10 22:54:15;;;;;;;30.13;13.10;;;;;;;;;;5073784;28;20370;-63
2024/02/10 22:56:43;;;;;;;34.45;14.63;;;;;;;;;;5081951;28;20027;-63
2024/02/10 22:59:11;;;;;;;25.20;12.32;;;;;;;;;;5071784;28;20021;-63
2024/02/10 23:01:37;;;;;;;25.35;11.80;;;;;;;;;;5072704;28;20035;-63
2024/02/10 23:04:02;;;;;;;22.35;11.02;;;;;;;;;;5072288;28;20508;-63
2024/02/10 23:06:36;;;;;;;18.73;10.43;;;;;;;;;;5071822;28;20024;-63
2024/02/10 23:09:13;;;;;;;32.42;13.75;;;;;;;;;;5072134;28;20029;-63
2024/02/10 23:11:41;;;;;;;37.33;14.32;;;;;;;;;;5072034;28;20491;-63
2024/02/10 23:14:07;;;;;;;31.55;14.27;;;;;;;;;;5071739;28;20112;-63
2024/02/10 23:16:33;;;;;;;27.80;11.50;;;;;;;;;;5072358;28;20107;-63
2024/02/10 23:19:00;;;;;;;22.00;11.10;;;;;;;;;;5071938;28;20467;-63
2024/02/10 23:21:26;;;;;;;20.75;10.23;;;;;;;;;;5071603;28;20468;-63
2024/02/10 23:23:53;;;;;;;20.95;9.77;;;;;;;;;;5071659;28;20017;-63
2024/02/10 23:26:20;;;;;;;15.85;8.27;;;;;;;;;;5072085;28;20472;-63
2024/02/10 23:28:48;;;;;;;12.17;8.03;;;;;;;;;;5072018;28;20035;-63
2024/02/10 23:31:13;;;;;;;12.30;8.35;;;;;;;;;;5072284;28;20249;-63
2024/02/10 23:33:39;;;;;;;11.40;7.75;;;;;;;;;;5085274;28;20034;-63
2024/02/10 23:36:18;;;;;;;12.35;8.15;;;;;;;;;;5091233;28;20023;-63
2024/02/10 23:38:44;;;;;;;13.27;7.22;;;;;;;;;;5092466;28;20019;-65
2024/02/10 23:41:09;;;;;;;10.20;6.00;;;;;;;;;;5092053;28;20365;-64
2024/02/10 23:43:38;;;;;;;9.80;4.93;;;;;;;;;;5092174;28;20024;-65
2024/02/10 23:46:06;;;;;;;8.05;5.03;;;;;;;;;;5091820;28;20256;-65
2024/02/10 23:48:34;;;;;;;7.38;4.47;;;;;;;;;;5091965;28;20491;-65
2024/02/10 23:51:01;;;;;;;6.22;3.80;;;;;;;;;;5091182;28;20028;-64
2024/02/10 23:53:26;;;;;;;6.43;3.75;;;;;;;;;;5092146;28;20020;-64
2024/02/10 23:55:51;;;;;;;7.37;4.40;;;;;;;;;;5091854;28;20038;-65
2024/02/10 23:58:16;;;;;;;7.07;3.53;;;;;;;;;;5071732;28;20468;-65
